Time;durP1;ratioP1;P1;durP2;ratioP2;P2;SDS_P1;SDS_P2;PMS_P1;PMS_P2;Temp;Humidity;BMP_temperature;BMP_pressure;BME280_temperature;BME280_humidity;BME280_pressure;Samples;Min_cycle;Max_cycle;Signal;HPM_P1;HPM_P2
2024/04/05 00:02:01;;;;;;;16.63;3.63;;;13.50;99.90;;;;;;5001067;28;20123;-72
2024/04/05 00:04:28;;;;;;;14.68;2.85;;;13.50;99.90;;;;;;5000943;28;20470;-71
2024/04/05 00:06:54;;;;;;;12.82;2.60;;;13.50;99.90;;;;;;4997941;28;20108;-72
2024/04/05 00:09:20;;;;;;;12.25;2.30;;;13.50;99.90;;;;;;4998185;28;20062;-71
2024/04/05 00:11:46;;;;;;;19.92;3.72;;;13.50;99.90;;;;;;5001318;28;20050;-71
2024/04/05 00:14:12;;;;;;;22.77;5.60;;;13.50;99.90;;;;;;4990619;28;20060;-71
2024/04/05 00:16:37;;;;;;;16.15;2.38;;;13.50;99.90;;;;;;5005273;28;20077;-72
2024/04/05 00:19:04;;;;;;;23.27;3.70;;;13.50;99.90;;;;;;5006572;28;20054;-72
2024/04/05 00:21:30;;;;;;;15.25;3.58;;;13.60;99.90;;;;;;4993395;28;20061;-71
2024/04/05 00:23:59;;;;;;;12.82;3.03;;;13.50;99.90;;;;;;4988855;28;20499;-71
2024/04/05 00:26:25;;;;;;;19.20;3.45;;;13.60;99.90;;;;;;5002774;28;20049;-73
2024/04/05 00:28:51;;;;;;;13.80;3.13;;;13.60;99.90;;;;;;5000388;28;20050;-72
2024/04/05 00:31:17;;;;;;;15.48;3.20;;;13.60;99.90;;;;;;5025170;28;20491;-72
2024/04/05 00:33:42;;;;;;;14.82;3.35;;;13.60;99.90;;;;;;5044377;28;20048;-71
2024/04/05 00:36:11;;;;;;;15.30;3.22;;;13.60;99.90;;;;;;5025243;28;20049;-71
2024/04/05 00:38:37;;;;;;;21.05;4.22;;;13.60;99.90;;;;;;5026892;28;20057;-71
2024/04/05 00:41:03;;;;;;;16.88;2.95;;;13.60;99.90;;;;;;5023267;28;20075;-71
2024/04/05 00:43:28;;;;;;;16.50;3.58;;;13.60;99.90;;;;;;5029109;28;20052;-71
2024/04/05 00:45:54;;;;;;;17.08;2.83;;;13.60;99.90;;;;;;5005499;28;20041;-72
2024/04/05 00:48:21;;;;;;;11.88;2.50;;;13.60;99.90;;;;;;5028312;28;20048;-71
2024/04/05 00:50:48;;;;;;;18.92;3.63;;;13.60;99.90;;;;;;5027249;28;20118;-71
2024/04/05 00:53:19;;;;;;;12.93;2.30;;;13.60;99.90;;;;;;5005289;28;20041;-71
2024/04/05 00:55:46;;;;;;;14.73;2.95;;;13.60;99.90;;;;;;4986601;28;20061;-71
2024/04/05 00:58:12;;;;;;;21.48;3.00;;;13.60;99.90;;;;;;5035819;28;20063;-72
2024/04/05 01:00:38;;;;;;;17.95;3.67;;;13.60;99.90;;;;;;5015238;28;20045;-72
2024/04/05 01:03:04;;;;;;;17.65;3.22;;;13.60;99.90;;;;;;5009495;28;20511;-71
2024/04/05 01:05:30;;;;;;;13.77;3.45;;;13.60;99.90;;;;;;5020330;28;20527;-71
2024/04/05 01:07:56;;;;;;;20.02;3.22;;;13.70;99.90;;;;;;5022468;28;20128;-71
2024/04/05 01:10:21;;;;;;;20.92;3.47;;;13.70;99.90;;;;;;5018397;28;20052;-71
2024/04/05 01:12:58;;;;;;;21.77;3.33;;;13.70;99.90;;;;;;5006961;28;20088;-71
2024/04/05 01:15:24;;;;;;;18.63;3.28;;;13.70;99.90;;;;;;5021821;28;20095;-71
2024/04/05 01:17:50;;;;;;;18.08;3.08;;;13.70;99.90;;;;;;5020486;28;20463;-72
2024/04/05 01:20:17;;;;;;;16.60;3.20;;;13.70;99.90;;;;;;5026127;28;20499;-72
2024/04/05 01:22:46;;;;;;;15.10;3.22;;;13.70;99.90;;;;;;5023800;28;20060;-72
2024/04/05 01:25:11;;;;;;;24.80;4.25;;;13.70;99.90;;;;;;5015426;28;20048;-72
2024/04/05 01:27:37;;;;;;;19.60;2.97;;;13.70;99.90;;;;;;5013691;28;20071;-72
2024/04/05 01:30:03;;;;;;;19.85;2.80;;;13.70;99.90;;;;;;5009176;28;20061;-73
2024/04/05 01:32:29;;;;;;;16.73;2.92;;;13.60;99.90;;;;;;5000891;28;20501;-72
2024/04/05 01:34:55;;;;;;;25.38;5.45;;;13.60;99.90;;;;;;5001587;28;20084;-72
2024/04/05 01:37:21;;;;;;;22.35;4.13;;;13.60;99.90;;;;;;4996637;28;20064;-72
2024/04/05 01:39:47;;;;;;;19.13;2.83;;;13.50;99.90;;;;;;5004497;28;20115;-72
2024/04/05 01:42:12;;;;;;;18.52;2.80;;;13.50;99.90;;;;;;5002345;28;20522;-72
2024/04/05 01:44:38;;;;;;;17.08;3.50;;;13.50;99.90;;;;;;4997683;28;20050;-74
2024/04/05 01:47:04;;;;;;;20.55;4.45;;;13.50;99.90;;;;;;5004826;28;20054;-72
2024/04/05 01:49:30;;;;;;;25.55;3.85;;;13.50;99.90;;;;;;5001987;28;20116;-72
2024/04/05 01:51:56;;;;;;;17.58;3.47;;;13.50;99.90;;;;;;5003040;28;20100;-72
2024/04/05 01:54:21;;;;;;;22.05;3.45;;;13.50;99.90;;;;;;4997208;28;20089;-72
2024/04/05 01:56:47;;;;;;;16.85;3.63;;;13.50;99.90;;;;;;4998932;28;20560;-72
2024/04/05 01:59:14;;;;;;;18.27;3.95;;;13.40;99.90;;;;;;5001444;28;20049;-72
2024/04/05 02:01:40;;;;;;;22.75;3.03;;;13.40;99.90;;;;;;4999164;28;20053;-72
2024/04/05 02:04:06;;;;;;;13.52;3.10;;;13.40;99.90;;;;;;4997049;28;20544;-72
2024/04/05 02:06:31;;;;;;;13.50;4.03;;;13.40;99.90;;;;;;4982260;28;20077;-72
2024/04/05 02:08:57;;;;;;;18.95;3.40;;;13.40;99.90;;;;;;5001958;28;20394;-72
2024/04/05 02:11:23;;;;;;;21.17;3.17;;;13.40;99.90;;;;;;5000085;28;20464;-72
2024/04/05 02:13:49;;;;;;;19.63;3.30;;;13.30;99.90;;;;;;4998769;28;20121;-73
2024/04/05 02:16:14;;;;;;;17.85;3.42;;;13.30;99.90;;;;;;4991738;28;20085;-73
2024/04/05 02:18:40;;;;;;;20.30;3.58;;;13.20;99.90;;;;;;4978075;28;20112;-72
2024/04/05 02:21:06;;;;;;;15.80;2.83;;;13.20;99.90;;;;;;4983138;28;20184;-71
2024/04/05 02:23:32;;;;;;;26.80;5.88;;;13.20;99.90;;;;;;4983835;28;20128;-72
2024/04/05 02:25:58;;;;;;;22.15;2.95;;;13.10;99.90;;;;;;4964551;28;20073;-72
2024/04/05 02:28:24;;;;;;;20.73;3.75;;;13.10;99.90;;;;;;5000644;28;20058;-72
2024/04/05 02:30:49;;;;;;;22.73;3.45;;;13.10;99.90;;;;;;4996468;28;20053;-71
2024/04/05 02:33:15;;;;;;;26.45;3.25;;;13.10;99.90;;;;;;4999351;28;20054;-72
2024/04/05 02:35:41;;;;;;;20.50;3.05;;;13.00;99.90;;;;;;4992120;28;20112;-73
2024/04/05 02:38:07;;;;;;;20.50;3.42;;;13.00;99.90;;;;;;4986978;28;20050;-73
2024/04/05 02:40:32;;;;;;;15.18;3.17;;;13.00;99.90;;;;;;4995633;28;20081;-73
2024/04/05 02:42:59;;;;;;;13.85;3.38;;;12.90;99.90;;;;;;4998116;28;20065;-73
2024/04/05 02:45:24;;;;;;;18.58;3.13;;;12.90;99.90;;;;;;4995732;28;20210;-73
2024/04/05 02:47:50;;;;;;;14.30;3.42;;;12.80;99.90;;;;;;5000420;28;20052;-73
2024/04/05 02:50:16;;;;;;;11.10;3.55;;;12.80;99.90;;;;;;4983684;28;20046;-73
2024/04/05 02:52:42;;;;;;;18.20;3.47;;;12.80;99.90;;;;;;4992415;28;20053;-72
2024/04/05 02:55:08;;;;;;;19.48;3.40;;;12.80;99.90;;;;;;5002308;28;20129;-72
2024/04/05 02:57:34;;;;;;;16.33;3.20;;;12.80;99.90;;;;;;4997764;28;20470;-72
2024/04/05 03:00:00;;;;;;;14.80;3.45;;;12.80;99.90;;;;;;4979135;28;20494;-72
2024/04/05 03:02:25;;;;;;;13.80;3.88;;;12.80;99.90;;;;;;4993587;28;20053;-72
2024/04/05 03:04:51;;;;;;;18.60;2.83;;;12.70;99.90;;;;;;5001379;28;20544;-72
2024/04/05 03:07:17;;;;;;;18.35;2.80;;;12.80;99.90;;;;;;4998293;28;20344;-71
2024/04/05 03:09:43;;;;;;;18.63;3.35;;;12.80;99.90;;;;;;5015851;28;20046;-72
2024/04/05 03:12:09;;;;;;;18.73;3.50;;;12.80;99.90;;;;;;4994289;28;20520;-72
2024/04/05 03:14:35;;;;;;;14.88;3.30;;;12.70;99.90;;;;;;4998412;28;20121;-72
2024/04/05 03:17:01;;;;;;;20.73;3.28;;;12.70;99.90;;;;;;5001355;28;20084;-72
2024/04/05 03:19:26;;;;;;;23.35;4.05;;;12.70;99.90;;;;;;4996939;28;20050;-72
2024/04/05 03:21:52;;;;;;;16.92;2.67;;;12.70;99.90;;;;;;4999057;28;20129;-71
2024/04/05 03:24:18;;;;;;;19.35;3.20;;;12.70;99.90;;;;;;4998864;28;20068;-72
2024/04/05 03:26:44;;;;;;;21.25;4.03;;;12.70;99.90;;;;;;5000610;28;20339;-72
2024/04/05 03:29:09;;;;;;;16.98;3.78;;;12.70;99.90;;;;;;4972367;28;20073;-71
2024/04/05 03:31:35;;;;;;;14.63;3.33;;;12.70;99.90;;;;;;5018275;28;20048;-71
2024/04/05 03:34:02;;;;;;;19.45;4.32;;;12.70;99.90;;;;;;5012897;28;20392;-71
2024/04/05 03:36:28;;;;;;;10.60;2.50;;;12.70;99.90;;;;;;5023263;28;20056;-71
2024/04/05 03:38:56;;;;;;;15.57;2.53;;;12.70;99.90;;;;;;5028979;28;20065;-72
2024/04/05 03:41:22;;;;;;;18.55;3.10;;;12.70;99.90;;;;;;5022436;28;20048;-71
2024/04/05 03:43:48;;;;;;;16.98;3.50;;;12.70;99.90;;;;;;5042458;28;20053;-72
2024/04/05 03:46:14;;;;;;;20.02;2.80;;;12.70;99.90;;;;;;5006780;28;20048;-72
2024/04/05 03:48:40;;;;;;;14.30;3.10;;;12.70;99.90;;;;;;5024270;28;20312;-72
2024/04/05 03:51:06;;;;;;;12.18;3.00;;;12.70;99.90;;;;;;5026531;28;20060;-72
2024/04/05 03:53:32;;;;;;;13.27;2.72;;;12.70;99.90;;;;;;5024952;28;20053;-71
2024/04/05 03:55:58;;;;;;;16.60;3.17;;;12.70;99.90;;;;;;5008769;28;20045;-72
2024/04/05 03:58:24;;;;;;;10.98;2.53;;;12.70;99.90;;;;;;5022259;28;20102;-73
2024/04/05 04:00:55;;;;;;;15.98;2.85;;;12.70;99.90;;;;;;5004978;28;20057;-73
2024/04/05 04:03:20;;;;;;;12.43;4.18;;;12.50;99.90;;;;;;5025453;28;20493;-73
2024/04/05 04:05:47;;;;;;;20.85;3.13;;;12.70;99.90;;;;;;5023245;28;20073;-73
2024/04/05 04:08:12;;;;;;;13.23;3.15;;;12.70;99.90;;;;;;5011018;28;20084;-72
2024/04/05 04:10:39;;;;;;;12.13;2.55;;;12.70;99.90;;;;;;5001350;28;20567;-71
2024/04/05 04:13:05;;;;;;;15.57;2.65;;;12.70;99.90;;;;;;5006961;28;20553;-71
2024/04/05 04:15:31;;;;;;;11.05;2.72;;;12.70;99.90;;;;;;5021736;28;20045;-71
2024/04/05 04:17:57;;;;;;;20.05;3.08;;;12.60;99.90;;;;;;5003814;28;20053;-71
2024/04/05 04:20:23;;;;;;;11.02;2.55;;;12.70;99.90;;;;;;5023623;28;20388;-72
2024/04/05 04:22:49;;;;;;;8.82;2.25;;;12.60;99.90;;;;;;5023516;28;20045;-71
2024/04/05 04:25:15;;;;;;;11.38;2.45;;;12.60;99.90;;;;;;5022871;28;20055;-72
2024/04/05 04:27:41;;;;;;;14.30;2.70;;;12.60;99.90;;;;;;5027093;28;20049;-71
2024/04/05 04:30:09;;;;;;;10.68;2.67;;;12.70;99.90;;;;;;5014706;28;20062;-72
2024/04/05 04:32:35;;;;;;;13.27;1.92;;;12.60;99.90;;;;;;5000470;28;20053;-71
2024/04/05 04:35:02;;;;;;;14.40;2.60;;;12.70;99.90;;;;;;4997860;28;20057;-71
2024/04/05 04:37:28;;;;;;;11.60;2.90;;;12.70;99.90;;;;;;4998598;28;20061;-71
2024/04/05 04:39:54;;;;;;;10.85;3.05;;;12.70;99.90;;;;;;4993356;28;20045;-72
2024/04/05 04:42:20;;;;;;;15.82;2.58;;;12.70;99.90;;;;;;5003104;28;20201;-71
2024/04/05 04:44:46;;;;;;;15.70;2.50;;;12.70;99.90;;;;;;4983272;28;20046;-71
2024/04/05 04:47:11;;;;;;;20.40;3.75;;;12.70;99.90;;;;;;5018059;28;20477;-71
2024/04/05 04:49:37;;;;;;;12.23;2.75;;;12.70;99.90;;;;;;4984856;28;20625;-71
2024/04/05 04:52:05;;;;;;;13.27;2.53;;;12.70;99.90;;;;;;5004345;28;20085;-71
2024/04/05 04:54:31;;;;;;;13.30;2.08;;;12.80;99.90;;;;;;5000823;28;20050;-72
2024/04/05 04:56:56;;;;;;;15.13;3.28;;;12.90;99.90;;;;;;5000702;28;20076;-72
2024/04/05 04:59:28;;;;;;;13.35;2.88;;;12.90;99.90;;;;;;4996514;28;20050;-72
2024/04/05 05:01:58;;;;;;;17.08;2.45;;;12.90;99.90;;;;;;4999201;28;20061;-72
2024/04/05 05:04:23;;;;;;;16.10;2.33;;;12.90;99.90;;;;;;4980931;28;20050;-72
2024/04/05 05:06:50;;;;;;;12.00;2.47;;;12.90;99.90;;;;;;4999534;28;20061;-72
2024/04/05 05:09:16;;;;;;;10.70;2.40;;;12.90;99.90;;;;;;4990943;28;20486;-71
2024/04/05 05:11:42;;;;;;;16.73;2.58;;;12.90;99.90;;;;;;4965072;28;20107;-73
2024/04/05 05:14:09;;;;;;;17.27;2.78;;;12.90;99.90;;;;;;4996499;28;20416;-72
2024/04/05 05:16:38;;;;;;;12.88;3.22;;;12.90;99.90;;;;;;5007084;28;20080;-72
2024/04/05 05:19:04;;;;;;;11.57;3.00;;;12.90;99.90;;;;;;4988669;28;20058;-72
2024/04/05 05:21:32;;;;;;;18.45;2.70;;;12.80;99.90;;;;;;4992237;28;20109;-72
2024/04/05 05:23:58;;;;;;;11.80;2.40;;;12.80;99.90;;;;;;4982511;28;20047;-72
2024/04/05 05:26:24;;;;;;;16.30;3.03;;;12.80;99.90;;;;;;4996122;28;20058;-73
2024/04/05 05:28:50;;;;;;;14.50;2.33;;;12.80;99.90;;;;;;4980119;28;20531;-72
2024/04/05 05:31:16;;;;;;;13.60;2.92;;;12.80;99.90;;;;;;5014964;28;20048;-72
2024/04/05 05:33:41;;;;;;;14.02;3.13;;;12.80;99.90;;;;;;5025979;28;20057;-73
2024/04/05 05:36:07;;;;;;;16.55;3.42;;;12.80;99.90;;;;;;5009112;28;20056;-73
2024/04/05 05:38:33;;;;;;;11.30;2.67;;;12.80;99.90;;;;;;5019066;28;20079;-74
2024/04/05 05:40:59;;;;;;;9.95;2.22;;;12.80;99.90;;;;;;5024182;28;20045;-73
2024/04/05 05:43:25;;;;;;;17.63;3.38;;;12.80;99.90;;;;;;5017116;28;20056;-73
2024/04/05 05:45:50;;;;;;;16.80;2.63;;;12.70;99.90;;;;;;5018580;28;20051;-73
2024/04/05 05:48:16;;;;;;;12.40;2.83;;;12.70;99.90;;;;;;5026512;28;20585;-72
2024/04/05 05:50:42;;;;;;;8.57;2.83;;;12.60;99.90;;;;;;5021413;28;20049;-72
2024/04/05 05:53:08;;;;;;;15.73;2.42;;;12.60;99.90;;;;;;5005214;28;20053;-72
2024/04/05 05:55:34;;;;;;;11.20;3.35;;;12.60;99.90;;;;;;5023485;28;20052;-73
2024/04/05 05:57:59;;;;;;;12.15;2.17;;;12.60;99.90;;;;;;5024466;28;20144;-73
2024/04/05 06:00:25;;;;;;;12.38;3.00;;;12.50;99.90;;;;;;5021772;28;20124;-73
2024/04/05 06:02:51;;;;;;;13.55;2.88;;;12.50;99.90;;;;;;5022779;28;20045;-73
2024/04/05 06:05:20;;;;;;;10.20;2.72;;;12.50;99.90;;;;;;5039425;28;20091;-73
2024/04/05 06:07:45;;;;;;;10.38;2.53;;;12.50;99.90;;;;;;5017622;28;20048;-71
2024/04/05 06:10:11;;;;;;;10.25;2.50;;;12.50;99.90;;;;;;5023175;28;20517;-71
2024/04/05 06:12:39;;;;;;;13.18;2.33;;;12.50;99.90;;;;;;5019746;28;20400;-70
2024/04/05 06:15:05;;;;;;;9.68;3.35;;;12.50;99.90;;;;;;5001628;28;20408;-70
2024/04/05 06:17:35;;;;;;;9.13;2.05;;;12.50;99.90;;;;;;5016996;28;20428;-71
2024/04/05 06:20:09;;;;;;;9.35;2.55;;;12.50;99.90;;;;;;5007134;28;20053;-71
2024/04/05 06:22:35;;;;;;;6.45;1.52;;;12.40;99.90;;;;;;5021161;28;20044;-71
2024/04/05 06:25:02;;;;;;;5.82;2.08;;;12.40;99.90;;;;;;5021558;28;20049;-71
2024/04/05 06:27:27;;;;;;;8.15;2.15;;;12.40;99.90;;;;;;5021283;28;20059;-72
2024/04/05 06:29:55;;;;;;;8.40;1.63;;;12.40;99.90;;;;;;5003418;28;20407;-71
2024/04/05 06:32:20;;;;;;;13.85;3.17;;;12.40;99.90;;;;;;5018611;28;20065;-71
2024/04/05 06:34:46;;;;;;;5.82;1.70;;;12.40;99.90;;;;;;5006849;28;20492;-71
2024/04/05 06:37:13;;;;;;;7.68;1.73;;;12.40;99.90;;;;;;5004132;28;20886;-71
2024/04/05 06:39:40;;;;;;;6.28;1.58;;;12.30;99.90;;;;;;5023967;28;20057;-75
2024/04/05 06:42:06;;;;;;;9.32;2.53;;;12.40;99.90;;;;;;5021922;28;20057;-72
2024/04/05 06:44:35;;;;;;;7.47;2.08;;;12.40;99.90;;;;;;5018009;28;20052;-72
2024/04/05 06:47:10;;;;;;;10.23;1.55;;;12.30;99.90;;;;;;5015459;28;20067;-72
2024/04/05 06:49:39;;;;;;;6.40;1.60;;;12.30;99.90;;;;;;5039687;28;20063;-72
2024/04/05 06:52:06;;;;;;;8.35;1.60;;;12.30;99.90;;;;;;5017671;28;20061;-72
2024/04/05 06:54:43;;;;;;;4.63;1.23;;;12.30;99.90;;;;;;5020869;28;20102;-73
2024/04/05 06:57:09;;;;;;;4.55;1.23;;;12.30;99.90;;;;;;5022719;28;20061;-73
2024/04/05 06:59:35;;;;;;;6.65;1.50;;;12.30;99.90;;;;;;5034296;28;20042;-73
2024/04/05 07:02:01;;;;;;;4.00;1.10;;;12.30;99.90;;;;;;5007994;28;20321;-73
2024/04/05 07:04:27;;;;;;;5.07;1.30;;;12.30;99.90;;;;;;5024636;28;20661;-75
2024/04/05 07:06:53;;;;;;;7.57;1.50;;;12.20;99.90;;;;;;5028031;28;20041;-74
2024/04/05 07:09:37;;;;;;;6.13;1.30;;;12.30;99.90;;;;;;5020224;28;20060;-73
2024/04/05 07:12:04;;;;;;;9.30;3.05;;;12.30;99.90;;;;;;5017847;28;20048;-74
2024/04/05 07:14:30;;;;;;;4.45;1.42;;;12.30;99.90;;;;;;5008559;28;20496;-74
2024/04/05 07:16:56;;;;;;;8.93;1.45;;;12.30;99.90;;;;;;5024597;28;20106;-75
2024/04/05 07:19:23;;;;;;;5.10;1.13;;;12.20;99.90;;;;;;5013346;28;20049;-74
2024/04/05 07:21:49;;;;;;;4.30;1.10;;;12.20;99.90;;;;;;5022093;28;20041;-74
2024/04/05 07:24:15;;;;;;;5.32;1.17;;;12.20;99.90;;;;;;5022776;28;20060;-74
2024/04/05 07:26:44;;;;;;;5.90;1.10;;;12.20;99.90;;;;;;5027220;28;20431;-74
2024/04/05 07:29:10;;;;;;;3.50;1.20;;;12.20;99.90;;;;;;5011356;28;20072;-74
2024/04/05 07:31:36;;;;;;;4.00;1.10;;;12.20;99.90;;;;;;5032991;28;20049;-74
2024/04/05 07:34:03;;;;;;;5.03;1.23;;;12.20;99.90;;;;;;5022151;28;20053;-74
2024/04/05 07:36:29;;;;;;;5.45;1.20;;;12.20;99.90;;;;;;5028935;28;20049;-74
2024/04/05 07:38:54;;;;;;;4.22;1.17;;;12.20;99.90;;;;;;5021795;28;20088;-74
2024/04/05 07:41:21;;;;;;;7.30;1.65;;;12.20;99.90;;;;;;5027804;28;20507;-74
2024/04/05 07:43:46;;;;;;;4.22;1.33;;;12.20;99.90;;;;;;5027278;28;20053;-75
2024/04/05 07:46:12;;;;;;;8.40;2.13;;;12.30;99.90;;;;;;5022612;28;20079;-75
2024/04/05 07:48:38;;;;;;;11.60;2.05;;;12.40;99.90;;;;;;5031881;28;20056;-74
2024/04/05 07:51:04;;;;;;;8.88;2.03;;;12.40;99.90;;;;;;5018864;28;20038;-75
2024/04/05 07:53:30;;;;;;;12.65;2.63;;;12.50;99.90;;;;;;5026192;28;20084;-74
2024/04/05 07:55:56;;;;;;;12.85;2.40;;;12.50;99.90;;;;;;5023791;28;20103;-75
2024/04/05 07:58:22;;;;;;;14.25;2.90;;;12.50;99.90;;;;;;5020361;28;20052;-74
2024/04/05 08:00:48;;;;;;;14.85;2.78;;;12.60;99.90;;;;;;5008211;28;20041;-74
2024/04/05 08:03:14;;;;;;;14.20;2.65;;;12.60;99.90;;;;;;5022306;28;20547;-73
2024/04/05 08:05:40;;;;;;;8.50;2.33;;;12.70;99.90;;;;;;5004918;28;20049;-70
2024/04/05 08:08:06;;;;;;;12.98;2.20;;;12.70;99.90;;;;;;5019889;28;20068;-73
2024/04/05 08:10:32;;;;;;;13.27;2.80;;;12.70;99.90;;;;;;5024405;28;20478;-73
2024/04/05 08:12:58;;;;;;;18.88;2.95;;;12.70;99.90;;;;;;5023649;28;20049;-73
2024/04/05 08:15:24;;;;;;;17.80;3.17;;;12.70;99.90;;;;;;5004368;28;20056;-73
2024/04/05 08:17:50;;;;;;;16.02;4.30;;;12.70;99.90;;;;;;5016035;28;20053;-72
2024/04/05 08:20:17;;;;;;;12.52;2.40;;;12.80;99.90;;;;;;5028433;28;20045;-72
2024/04/05 08:22:43;;;;;;;13.20;2.63;;;12.80;99.90;;;;;;5010508;28;20103;-72
2024/04/05 08:25:09;;;;;;;17.27;3.45;;;12.80;99.90;;;;;;5028838;28;20119;-72
2024/04/05 08:27:35;;;;;;;20.00;3.10;;;12.80;99.90;;;;;;5004958;28;20045;-72
2024/04/05 08:30:01;;;;;;;13.93;2.65;;;12.90;99.90;;;;;;5024762;28;20053;-72
2024/04/05 08:32:27;;;;;;;22.80;3.33;;;12.90;99.90;;;;;;5025605;28;20049;-72
2024/04/05 08:34:53;;;;;;;17.13;3.65;;;12.90;99.90;;;;;;5028902;28;20144;-73
2024/04/05 08:37:18;;;;;;;12.38;2.45;;;12.90;99.90;;;;;;5026028;28;20049;-74
2024/04/05 08:39:44;;;;;;;22.33;4.10;;;12.90;99.90;;;;;;5009620;28;20057;-72
2024/04/05 08:42:17;;;;;;;20.25;2.45;;;12.90;99.90;;;;;;5008523;28;20053;-73
2024/04/05 08:44:47;;;;;;;14.63;2.70;;;12.90;99.90;;;;;;5028636;28;20060;-72
2024/04/05 08:47:13;;;;;;;14.90;2.88;;;12.90;99.90;;;;;;5007326;28;20045;-74
2024/04/05 08:49:39;;;;;;;16.98;4.20;;;13.00;99.90;;;;;;5022747;28;20064;-74
2024/04/05 08:52:05;;;;;;;18.38;3.45;;;13.10;99.90;;;;;;5025428;28;20292;-72
2024/04/05 08:54:31;;;;;;;13.07;3.20;;;13.10;99.90;;;;;;5018883;28;20053;-72
2024/04/05 08:57:00;;;;;;;19.60;3.22;;;13.20;99.90;;;;;;5016338;28;20056;-73
2024/04/05 08:59:29;;;;;;;20.35;2.97;;;13.20;99.90;;;;;;5012531;28;20052;-72
2024/04/05 09:02:01;;;;;;;21.48;3.63;;;13.40;99.90;;;;;;5026901;28;20041;-73
2024/04/05 09:04:30;;;;;;;13.98;3.13;;;13.50;99.90;;;;;;5007958;28;20060;-73
2024/04/05 09:06:56;;;;;;;25.20;4.65;;;13.50;99.90;;;;;;5010884;28;20098;-73
2024/04/05 09:09:28;;;;;;;14.00;3.13;;;13.60;99.90;;;;;;5024281;28;20079;-73
2024/04/05 09:12:03;;;;;;;18.58;4.15;;;13.60;99.90;;;;;;5027635;28;20045;-72
2024/04/05 09:14:29;;;;;;;20.50;2.92;;;13.60;99.90;;;;;;5023076;28;20038;-73
2024/04/05 09:16:55;;;;;;;27.00;5.18;;;13.60;99.90;;;;;;5029183;28;20055;-72
2024/04/05 09:19:22;;;;;;;22.75;5.07;;;13.60;99.90;;;;;;5024917;28;20057;-73
2024/04/05 09:21:48;;;;;;;17.80;3.60;;;13.50;99.90;;;;;;5029300;28;20057;-73
2024/04/05 09:24:16;;;;;;;23.17;3.92;;;13.60;99.90;;;;;;5004321;28;20087;-73
2024/04/05 09:26:43;;;;;;;24.58;2.75;;;13.70;99.90;;;;;;5021736;28;20056;-72
2024/04/05 09:29:12;;;;;;;22.80;4.35;;;13.80;99.90;;;;;;5021353;28;20048;-73
2024/04/05 09:31:38;;;;;;;20.45;4.18;;;14.00;99.90;;;;;;5025353;28;20045;-73
2024/04/05 09:34:05;;;;;;;20.70;3.75;;;14.00;99.90;;;;;;5022325;28;20532;-73
2024/04/05 09:36:35;;;;;;;18.05;3.53;;;14.10;99.90;;;;;;5029051;28;20159;-73
2024/04/05 09:39:02;;;;;;;17.08;4.18;;;14.30;99.90;;;;;;5025122;28;20512;-73
2024/04/05 09:41:29;;;;;;;21.25;4.13;;;14.50;99.90;;;;;;5024852;28;20469;-73
2024/04/05 09:43:56;;;;;;;19.35;4.30;;;14.80;99.90;;;;;;5010436;28;20092;-72
2024/04/05 09:46:24;;;;;;;24.23;4.70;;;14.70;99.90;;;;;;5019123;28;20041;-72
2024/04/05 09:48:50;;;;;;;21.17;4.72;;;14.80;99.90;;;;;;5025813;28;20056;-73
2024/04/05 09:51:18;;;;;;;23.90;5.22;;;14.90;99.90;;;;;;5021719;28;20053;-72
2024/04/05 09:53:47;;;;;;;31.38;4.28;;;15.20;99.90;;;;;;5010215;28;20106;-73
2024/04/05 09:56:16;;;;;;;23.30;4.35;;;15.30;99.90;;;;;;5027548;28;20084;-72
2024/04/05 09:58:42;;;;;;;20.98;4.30;;;15.60;99.90;;;;;;5009618;28;20412;-72
2024/04/05 10:01:08;;;;;;;20.92;3.95;;;15.70;99.90;;;;;;5027810;28;20056;-72
2024/04/05 10:03:35;;;;;;;24.73;4.63;;;15.50;99.90;;;;;;5018454;28;20045;-73
2024/04/05 10:06:13;;;;;;;22.45;5.55;;;15.50;99.90;;;;;;5022230;28;20045;-72
2024/04/05 10:08:39;;;;;;;23.80;5.47;;;15.30;99.90;;;;;;5025509;28;20233;-73
2024/04/05 10:11:12;;;;;;;20.05;3.70;;;15.30;99.90;;;;;;5023721;28;20154;-74
2024/04/05 10:13:38;;;;;;;29.23;5.25;;;15.30;99.90;;;;;;5027357;28;20049;-72
2024/04/05 10:16:04;;;;;;;26.77;4.93;;;15.40;99.90;;;;;;5008854;28;20060;-72
2024/04/05 10:18:38;;;;;;;25.15;5.75;;;15.40;99.90;;;;;;5012746;28;20476;-72
2024/04/05 10:21:07;;;;;;;107.05;8.63;;;15.30;99.90;;;;;;5005094;28;20133;-72
2024/04/05 10:23:34;;;;;;;31.05;5.93;;;15.40;99.90;;;;;;5025147;28;20072;-72
2024/04/05 10:26:00;;;;;;;27.08;4.65;;;15.30;99.90;;;;;;5003252;28;20052;-73
2024/04/05 10:28:26;;;;;;;66.78;10.57;;;15.30;99.90;;;;;;5022718;28;20095;-73
2024/04/05 10:30:53;;;;;;;18.63;3.60;;;15.30;99.90;;;;;;5041916;28;20061;-73
2024/04/05 10:33:19;;;;;;;21.95;4.70;;;15.40;99.90;;;;;;5026211;28;20064;-74
2024/04/05 10:35:46;;;;;;;16.38;4.20;;;15.40;99.90;;;;;;5005068;28;20045;-69
2024/04/05 10:38:12;;;;;;;23.00;4.07;;;15.50;99.90;;;;;;5007254;28;20891;-73
2024/04/05 10:40:38;;;;;;;26.90;4.95;;;15.60;99.90;;;;;;5020239;28;20052;-74
2024/04/05 10:43:11;;;;;;;25.48;6.25;;;15.60;99.90;;;;;;5012981;28;20049;-73
2024/04/05 10:45:38;;;;;;;69.53;9.00;;;15.70;99.90;;;;;;5023781;28;20366;-73
2024/04/05 10:48:06;;;;;;;19.15;4.35;;;15.70;99.90;;;;;;5010540;28;20053;-73
2024/04/05 10:50:39;;;;;;;29.48;4.78;;;15.80;99.90;;;;;;5022322;28;20064;-75
2024/04/05 10:53:05;;;;;;;22.52;5.00;;;15.80;99.90;;;;;;5022083;28;20057;-73
2024/04/05 10:55:31;;;;;;;27.38;4.55;;;16.10;99.90;;;;;;5027891;28;20057;-74
2024/04/05 10:58:01;;;;;;;27.60;5.70;;;16.20;99.90;;;;;;5025068;28;20956;-72
2024/04/05 11:00:27;;;;;;;21.48;4.05;;;16.00;99.90;;;;;;5017093;28;20064;-74
2024/04/05 11:02:54;;;;;;;21.77;3.55;;;15.80;99.90;;;;;;5010521;28;20416;-70
2024/04/05 11:05:20;;;;;;;26.70;4.90;;;15.60;99.90;;;;;;5020476;28;20106;-73
2024/04/05 11:07:46;;;;;;;24.40;4.68;;;15.60;99.90;;;;;;5025553;28;20064;-73
2024/04/05 11:10:13;;;;;;;20.50;4.35;;;15.80;99.90;;;;;;5023425;28;20049;-71
2024/04/05 11:12:39;;;;;;;27.45;4.43;;;15.90;99.90;;;;;;5021116;28;20783;-73
2024/04/05 11:15:05;;;;;;;20.73;4.65;;;16.00;99.90;;;;;;5003578;28;20056;-71
2024/04/05 11:17:31;;;;;;;29.50;5.70;;;16.00;99.90;;;;;;5025263;28;20108;-72
2024/04/05 11:20:11;;;;;;;21.85;4.60;;;16.10;99.90;;;;;;5006377;28;20063;-73
2024/04/05 11:22:42;;;;;;;22.13;5.28;;;16.20;99.90;;;;;;5007625;28;20064;-73
2024/04/05 11:25:09;;;;;;;23.77;5.13;;;16.20;99.90;;;;;;5019951;28;20496;-73
2024/04/05 11:27:35;;;;;;;22.70;4.70;;;16.00;99.90;;;;;;5021050;28;20463;-73
2024/04/05 11:30:03;;;;;;;21.88;3.92;;;16.10;99.90;;;;;;5030979;28;20064;-72
2024/04/05 11:32:31;;;;;;;23.88;5.47;;;16.20;99.90;;;;;;5021269;28;20056;-72
2024/04/05 11:35:04;;;;;;;29.10;5.85;;;16.20;99.90;;;;;;5024187;28;20045;-72
2024/04/05 11:37:29;;;;;;;19.73;4.72;;;16.10;99.90;;;;;;5027437;28;21440;-73
2024/04/05 11:39:57;;;;;;;33.13;5.57;;;16.10;99.90;;;;;;5005304;28;20049;-74
2024/04/05 11:42:23;;;;;;;23.23;4.40;;;16.30;99.90;;;;;;5004381;28;20511;-73
2024/04/05 11:44:49;;;;;;;23.92;5.80;;;16.50;99.90;;;;;;5007066;28;20087;-73
2024/04/05 11:47:19;;;;;;;24.67;3.65;;;16.60;99.90;;;;;;5025227;28;20098;-73
2024/04/05 11:49:44;;;;;;;19.50;4.50;;;16.60;99.90;;;;;;5027224;28;20049;-73
2024/04/05 11:52:11;;;;;;;24.52;5.70;;;16.90;99.90;;;;;;4993107;28;20048;-73
2024/04/05 11:54:37;;;;;;;27.83;5.25;;;17.10;99.90;;;;;;5022970;28;20450;-74
2024/04/05 11:57:03;;;;;;;22.08;5.13;;;17.10;99.90;;;;;;5022990;28;20138;-71
2024/04/05 11:59:29;;;;;;;20.52;4.40;;;17.20;99.90;;;;;;5023705;28;20056;-73
2024/04/05 12:01:55;;;;;;;29.05;5.40;;;17.10;99.90;;;;;;5024095;28;20638;-73
2024/04/05 12:04:21;;;;;;;20.92;4.03;;;17.00;99.90;;;;;;5019807;28;20078;-72
2024/04/05 12:06:50;;;;;;;23.80;4.97;;;16.90;99.90;;;;;;5027399;28;20122;-73
2024/04/05 12:09:17;;;;;;;18.23;4.07;;;16.80;99.90;;;;;;5026125;28;20098;-72
2024/04/05 12:11:45;;;;;;;26.20;4.68;;;16.70;99.90;;;;;;5028373;28;20791;-73
2024/04/05 12:14:11;;;;;;;30.15;5.25;;;16.60;99.90;;;;;;5039888;28;20520;-74
2024/04/05 12:16:37;;;;;;;16.33;3.85;;;16.70;99.90;;;;;;5030304;28;20045;-74
2024/04/05 12:19:03;;;;;;;22.10;4.22;;;16.80;99.90;;;;;;5024207;28;20063;-73
2024/04/05 12:21:29;;;;;;;19.92;3.72;;;16.80;99.90;;;;;;5028649;28;20056;-73
2024/04/05 12:23:55;;;;;;;30.35;4.55;;;16.90;99.90;;;;;;4665492;28;10000548;-74
2024/04/05 12:26:21;;;;;;;25.45;5.97;;;17.00;99.90;;;;;;5019961;28;20485;-73
2024/04/05 12:28:46;;;;;;;30.27;5.78;;;17.20;99.90;;;;;;5023299;28;20048;-73
2024/04/05 12:31:12;;;;;;;22.73;4.20;;;17.30;99.90;;;;;;5021000;28;20061;-74
2024/04/05 12:33:42;;;;;;;25.20;4.63;;;17.40;99.90;;;;;;5026347;28;20057;-73
2024/04/05 12:36:09;;;;;;;36.80;5.45;;;17.20;99.90;;;;;;5022898;28;20114;-74